sensor_id;sensor_type;location;lat;lon;timestamp;P1;durP1;ratioP1;P2;durP2;ratioP2
40849;SDS011;26571;41.610;25.380;2022-11-20T00:01:22;9.00;;;1.98;;
40849;SDS011;26571;41.610;25.380;2022-11-20T00:03:50;10.35;;;2.65;;
40849;SDS011;26571;41.610;25.380;2022-11-20T00:08:43;8.70;;;1.88;;
40849;SDS011;26571;41.610;25.380;2022-11-20T00:11:13;8.73;;;1.38;;
40849;SDS011;26571;41.610;25.380;2022-11-20T00:13:50;16.40;;;4.43;;
40849;SDS011;26571;41.610;25.380;2022-11-20T00:16:19;6.35;;;1.85;;
40849;SDS011;26571;41.610;25.380;2022-11-20T00:18:46;16.75;;;3.25;;
40849;SDS011;26571;41.610;25.380;2022-11-20T00:23:39;11.90;;;1.42;;
40849;SDS011;26571;41.610;25.380;2022-11-20T00:26:05;12.90;;;2.47;;
40849;SDS011;26571;41.610;25.380;2022-11-20T00:28:32;9.05;;;1.75;;
40849;SDS011;26571;41.610;25.380;2022-11-20T00:31:16;9.75;;;1.25;;
40849;SDS011;26571;41.610;25.380;2022-11-20T00:33:42;10.75;;;1.20;;
40849;SDS011;26571;41.610;25.380;2022-11-20T00:36:27;10.13;;;1.73;;
40849;SDS011;26571;41.610;25.380;2022-11-20T00:38:55;9.27;;;2.03;;
40849;SDS011;26571;41.610;25.380;2022-11-20T00:41:22;11.38;;;1.70;;
40849;SDS011;26571;41.610;25.380;2022-11-20T00:43:48;10.85;;;1.45;;
40849;SDS011;26571;41.610;25.380;2022-11-20T00:46:14;8.13;;;1.15;;
40849;SDS011;26571;41.610;25.380;2022-11-20T00:48:42;10.25;;;1.77;;
40849;SDS011;26571;41.610;25.380;2022-11-20T00:51:08;14.23;;;1.17;;
40849;SDS011;26571;41.610;25.380;2022-11-20T00:53:36;9.48;;;1.38;;
40849;SDS011;26571;41.610;25.380;2022-11-20T00:56:05;7.97;;;0.77;;
40849;SDS011;26571;41.610;25.380;2022-11-20T00:58:33;13.40;;;3.20;;
40849;SDS011;26571;41.610;25.380;2022-11-20T01:01:04;14.45;;;2.03;;
40849;SDS011;26571;41.610;25.380;2022-11-20T01:03:34;7.60;;;3.17;;
40849;SDS011;26571;41.610;25.380;2022-11-20T01:06:21;10.90;;;2.80;;
40849;SDS011;26571;41.610;25.380;2022-11-20T01:08:49;8.98;;;2.25;;
40849;SDS011;26571;41.610;25.380;2022-11-20T01:13:42;7.68;;;1.52;;
40849;SDS011;26571;41.610;25.380;2022-11-20T01:16:11;6.03;;;1.23;;
40849;SDS011;26571;41.610;25.380;2022-11-20T01:18:40;13.35;;;2.65;;
40849;SDS011;26571;41.610;25.380;2022-11-20T01:21:09;13.43;;;1.02;;
40849;SDS011;26571;41.610;25.380;2022-11-20T01:23:38;9.13;;;1.67;;
40849;SDS011;26571;41.610;25.380;2022-11-20T01:26:09;6.75;;;1.17;;
40849;SDS011;26571;41.610;25.380;2022-11-20T01:28:36;9.55;;;1.50;;
40849;SDS011;26571;41.610;25.380;2022-11-20T01:31:10;7.93;;;1.60;;
40849;SDS011;26571;41.610;25.380;2022-11-20T01:33:39;6.60;;;2.08;;
40849;SDS011;26571;41.610;25.380;2022-11-20T01:36:06;7.10;;;1.00;;
40849;SDS011;26571;41.610;25.380;2022-11-20T01:38:32;10.55;;;2.08;;
40849;SDS011;26571;41.610;25.380;2022-11-20T01:40:58;10.43;;;2.92;;
40849;SDS011;26571;41.610;25.380;2022-11-20T01:43:23;3.17;;;1.10;;
40849;SDS011;26571;41.610;25.380;2022-11-20T01:46:08;10.05;;;2.08;;
40849;SDS011;26571;41.610;25.380;2022-11-20T01:51:52;7.40;;;1.00;;
40849;SDS011;26571;41.610;25.380;2022-11-20T01:54:22;9.18;;;0.85;;
40849;SDS011;26571;41.610;25.380;2022-11-20T01:56:53;5.28;;;0.88;;
40849;SDS011;26571;41.610;25.380;2022-11-20T01:59:21;12.68;;;1.02;;
40849;SDS011;26571;41.610;25.380;2022-11-20T02:01:49;8.05;;;1.40;;
40849;SDS011;26571;41.610;25.380;2022-11-20T02:04:14;3.22;;;0.82;;
40849;SDS011;26571;41.610;25.380;2022-11-20T02:06:42;13.13;;;1.35;;
40849;SDS011;26571;41.610;25.380;2022-11-20T02:09:11;12.35;;;2.13;;
40849;SDS011;26571;41.610;25.380;2022-11-20T02:11:36;4.00;;;2.10;;
40849;SDS011;26571;41.610;25.380;2022-11-20T02:14:02;10.60;;;1.05;;
40849;SDS011;26571;41.610;25.380;2022-11-20T02:16:28;9.98;;;2.17;;
40849;SDS011;26571;41.610;25.380;2022-11-20T02:19:06;7.25;;;0.80;;
40849;SDS011;26571;41.610;25.380;2022-11-20T02:21:43;9.93;;;1.17;;
40849;SDS011;26571;41.610;25.380;2022-11-20T02:24:21;13.65;;;1.27;;
40849;SDS011;26571;41.610;25.380;2022-11-20T02:32:04;11.77;;;2.05;;
40849;SDS011;26571;41.610;25.380;2022-11-20T02:34:30;6.82;;;2.03;;
40849;SDS011;26571;41.610;25.380;2022-11-20T02:36:55;9.85;;;1.63;;
40849;SDS011;26571;41.610;25.380;2022-11-20T02:39:22;16.33;;;5.13;;
40849;SDS011;26571;41.610;25.380;2022-11-20T02:41:50;12.82;;;2.25;;
40849;SDS011;26571;41.610;25.380;2022-11-20T02:44:17;9.20;;;1.33;;
40849;SDS011;26571;41.610;25.380;2022-11-20T02:46:43;4.70;;;1.15;;
40849;SDS011;26571;41.610;25.380;2022-11-20T02:49:08;4.88;;;1.38;;
40849;SDS011;26571;41.610;25.380;2022-11-20T02:51:34;10.30;;;1.10;;
40849;SDS011;26571;41.610;25.380;2022-11-20T02:53:59;9.27;;;0.98;;
40849;SDS011;26571;41.610;25.380;2022-11-20T02:56:25;7.78;;;0.68;;
40849;SDS011;26571;41.610;25.380;2022-11-20T02:58:50;7.55;;;1.52;;
40849;SDS011;26571;41.610;25.380;2022-11-20T03:01:16;5.60;;;0.70;;
40849;SDS011;26571;41.610;25.380;2022-11-20T03:03:41;7.18;;;2.05;;
40849;SDS011;26571;41.610;25.380;2022-11-20T03:06:07;6.22;;;0.70;;
40849;SDS011;26571;41.610;25.380;2022-11-20T03:08:32;5.32;;;0.50;;
40849;SDS011;26571;41.610;25.380;2022-11-20T03:11:01;5.30;;;1.80;;
40849;SDS011;26571;41.610;25.380;2022-11-20T03:13:29;4.20;;;0.75;;
40849;SDS011;26571;41.610;25.380;2022-11-20T03:15:54;8.68;;;0.77;;
40849;SDS011;26571;41.610;25.380;2022-11-20T03:18:19;4.63;;;0.85;;
40849;SDS011;26571;41.610;25.380;2022-11-20T03:20:45;5.57;;;0.80;;
40849;SDS011;26571;41.610;25.380;2022-11-20T03:23:10;3.80;;;0.55;;
40849;SDS011;26571;41.610;25.380;2022-11-20T03:25:35;5.47;;;0.60;;
40849;SDS011;26571;41.610;25.380;2022-11-20T03:28:01;4.20;;;0.75;;
40849;SDS011;26571;41.610;25.380;2022-11-20T03:30:26;3.38;;;0.43;;
40849;SDS011;26571;41.610;25.380;2022-11-20T03:32:52;4.65;;;0.82;;
40849;SDS011;26571;41.610;25.380;2022-11-20T03:35:18;5.50;;;0.95;;
40849;SDS011;26571;41.610;25.380;2022-11-20T03:37:44;5.32;;;0.80;;
40849;SDS011;26571;41.610;25.380;2022-11-20T03:40:10;4.40;;;1.10;;
40849;SDS011;26571;41.610;25.380;2022-11-20T03:42:36;7.63;;;1.90;;
40849;SDS011;26571;41.610;25.380;2022-11-20T03:45:10;4.72;;;0.80;;
40849;SDS011;26571;41.610;25.380;2022-11-20T03:47:36;5.93;;;0.80;;
40849;SDS011;26571;41.610;25.380;2022-11-20T03:50:02;10.48;;;1.77;;
40849;SDS011;26571;41.610;25.380;2022-11-20T03:52:28;6.95;;;1.00;;
40849;SDS011;26571;41.610;25.380;2022-11-20T03:54:53;6.18;;;1.10;;
40849;SDS011;26571;41.610;25.380;2022-11-20T03:57:19;10.32;;;1.98;;
40849;SDS011;26571;41.610;25.380;2022-11-20T03:59:44;6.53;;;1.15;;
40849;SDS011;26571;41.610;25.380;2022-11-20T04:02:09;12.23;;;3.75;;
40849;SDS011;26571;41.610;25.380;2022-11-20T04:04:35;8.93;;;2.53;;
40849;SDS011;26571;41.610;25.380;2022-11-20T04:07:00;6.22;;;0.93;;
40849;SDS011;26571;41.610;25.380;2022-11-20T04:09:25;11.05;;;1.85;;
40849;SDS011;26571;41.610;25.380;2022-11-20T04:11:51;9.43;;;2.25;;
40849;SDS011;26571;41.610;25.380;2022-11-20T04:14:16;5.07;;;1.17;;
40849;SDS011;26571;41.610;25.380;2022-11-20T04:16:42;9.20;;;1.60;;
40849;SDS011;26571;41.610;25.380;2022-11-20T04:19:12;5.18;;;0.95;;
40849;SDS011;26571;41.610;25.380;2022-11-20T04:21:40;5.53;;;1.30;;
40849;SDS011;26571;41.610;25.380;2022-11-20T04:24:06;8.90;;;2.10;;
40849;SDS011;26571;41.610;25.380;2022-11-20T04:26:32;6.30;;;0.85;;
40849;SDS011;26571;41.610;25.380;2022-11-20T04:28:57;4.25;;;0.93;;
40849;SDS011;26571;41.610;25.380;2022-11-20T04:31:27;7.32;;;1.50;;
40849;SDS011;26571;41.610;25.380;2022-11-20T04:33:54;9.20;;;1.33;;
40849;SDS011;26571;41.610;25.380;2022-11-20T04:36:21;10.32;;;2.05;;
40849;SDS011;26571;41.610;25.380;2022-11-20T04:38:52;9.35;;;2.47;;
40849;SDS011;26571;41.610;25.380;2022-11-20T04:41:22;12.43;;;3.33;;
40849;SDS011;26571;41.610;25.380;2022-11-20T04:43:51;10.25;;;3.05;;
40849;SDS011;26571;41.610;25.380;2022-11-20T04:46:23;12.30;;;1.30;;
40849;SDS011;26571;41.610;25.380;2022-11-20T04:48:49;6.97;;;1.67;;
40849;SDS011;26571;41.610;25.380;2022-11-20T04:51:14;5.95;;;0.75;;
40849;SDS011;26571;41.610;25.380;2022-11-20T04:53:39;7.60;;;1.27;;
40849;SDS011;26571;41.610;25.380;2022-11-20T04:56:06;6.57;;;1.80;;
40849;SDS011;26571;41.610;25.380;2022-11-20T04:58:33;7.85;;;0.90;;
40849;SDS011;26571;41.610;25.380;2022-11-20T05:01:02;7.63;;;2.33;;
40849;SDS011;26571;41.610;25.380;2022-11-20T05:03:29;7.50;;;1.67;;
40849;SDS011;26571;41.610;25.380;2022-11-20T05:05:55;10.20;;;2.65;;
40849;SDS011;26571;41.610;25.380;2022-11-20T05:08:20;6.22;;;2.42;;
40849;SDS011;26571;41.610;25.380;2022-11-20T05:10:46;16.42;;;4.65;;
40849;SDS011;26571;41.610;25.380;2022-11-20T05:13:11;8.63;;;2.60;;
40849;SDS011;26571;41.610;25.380;2022-11-20T05:15:36;6.60;;;2.42;;
40849;SDS011;26571;41.610;25.380;2022-11-20T05:18:02;6.28;;;1.13;;
40849;SDS011;26571;41.610;25.380;2022-11-20T05:20:27;8.55;;;3.33;;
40849;SDS011;26571;41.610;25.380;2022-11-20T05:22:56;7.20;;;2.05;;
40849;SDS011;26571;41.610;25.380;2022-11-20T05:25:22;8.77;;;2.35;;
40849;SDS011;26571;41.610;25.380;2022-11-20T05:27:47;6.28;;;1.85;;
40849;SDS011;26571;41.610;25.380;2022-11-20T05:30:13;8.82;;;3.13;;
40849;SDS011;26571;41.610;25.380;2022-11-20T05:32:39;9.25;;;2.50;;
40849;SDS011;26571;41.610;25.380;2022-11-20T05:35:04;11.15;;;3.35;;
40849;SDS011;26571;41.610;25.380;2022-11-20T05:37:30;5.40;;;2.42;;
40849;SDS011;26571;41.610;25.380;2022-11-20T05:39:55;11.70;;;3.53;;
40849;SDS011;26571;41.610;25.380;2022-11-20T05:42:20;11.13;;;1.08;;
40849;SDS011;26571;41.610;25.380;2022-11-20T05:44:55;8.18;;;1.90;;
40849;SDS011;26571;41.610;25.380;2022-11-20T05:47:20;11.40;;;4.03;;
40849;SDS011;26571;41.610;25.380;2022-11-20T05:49:46;9.07;;;2.60;;
40849;SDS011;26571;41.610;25.380;2022-11-20T05:52:11;9.65;;;3.05;;
40849;SDS011;26571;41.610;25.380;2022-11-20T05:54:37;16.73;;;3.35;;
40849;SDS011;26571;41.610;25.380;2022-11-20T05:57:02;11.48;;;2.25;;
40849;SDS011;26571;41.610;25.380;2022-11-20T05:59:28;14.75;;;3.70;;
40849;SDS011;26571;41.610;25.380;2022-11-20T06:01:53;6.82;;;2.80;;
40849;SDS011;26571;41.610;25.380;2022-11-20T06:04:18;7.82;;;1.92;;
40849;SDS011;26571;41.610;25.380;2022-11-20T06:06:44;8.85;;;1.85;;
40849;SDS011;26571;41.610;25.380;2022-11-20T06:09:09;9.40;;;2.95;;
40849;SDS011;26571;41.610;25.380;2022-11-20T06:11:35;12.35;;;2.58;;
40849;SDS011;26571;41.610;25.380;2022-11-20T06:14:00;10.85;;;2.30;;
40849;SDS011;26571;41.610;25.380;2022-11-20T06:16:25;13.98;;;3.08;;
40849;SDS011;26571;41.610;25.380;2022-11-20T06:18:51;11.30;;;2.47;;
40849;SDS011;26571;41.610;25.380;2022-11-20T06:21:17;11.55;;;3.03;;
40849;SDS011;26571;41.610;25.380;2022-11-20T06:23:44;12.90;;;2.08;;
40849;SDS011;26571;41.610;25.380;2022-11-20T06:26:11;9.20;;;3.20;;
40849;SDS011;26571;41.610;25.380;2022-11-20T06:28:39;8.40;;;1.90;;
40849;SDS011;26571;41.610;25.380;2022-11-20T06:31:05;9.30;;;1.83;;
40849;SDS011;26571;41.610;25.380;2022-11-20T06:36:00;6.38;;;1.48;;
40849;SDS011;26571;41.610;25.380;2022-11-20T06:38:27;6.35;;;2.10;;
40849;SDS011;26571;41.610;25.380;2022-11-20T06:40:53;11.65;;;2.53;;
40849;SDS011;26571;41.610;25.380;2022-11-20T06:43:19;9.55;;;2.13;;
40849;SDS011;26571;41.610;25.380;2022-11-20T06:45:44;9.55;;;1.60;;
40849;SDS011;26571;41.610;25.380;2022-11-20T06:48:10;14.05;;;2.28;;
40849;SDS011;26571;41.610;25.380;2022-11-20T06:50:38;6.63;;;1.02;;
40849;SDS011;26571;41.610;25.380;2022-11-20T06:53:04;9.10;;;1.02;;
40849;SDS011;26571;41.610;25.380;2022-11-20T06:55:30;9.23;;;1.42;;
40849;SDS011;26571;41.610;25.380;2022-11-20T06:57:56;7.72;;;1.95;;
40849;SDS011;26571;41.610;25.380;2022-11-20T07:00:22;10.50;;;1.60;;
40849;SDS011;26571;41.610;25.380;2022-11-20T07:02:47;7.65;;;1.55;;
40849;SDS011;26571;41.610;25.380;2022-11-20T07:05:12;7.10;;;2.58;;
40849;SDS011;26571;41.610;25.380;2022-11-20T07:07:38;6.97;;;1.52;;
40849;SDS011;26571;41.610;25.380;2022-11-20T07:10:03;12.35;;;2.78;;
40849;SDS011;26571;41.610;25.380;2022-11-20T07:12:29;13.68;;;3.05;;
40849;SDS011;26571;41.610;25.380;2022-11-20T07:14:55;6.10;;;1.27;;
40849;SDS011;26571;41.610;25.380;2022-11-20T07:17:20;11.05;;;1.75;;
40849;SDS011;26571;41.610;25.380;2022-11-20T07:19:45;12.82;;;1.65;;
40849;SDS011;26571;41.610;25.380;2022-11-20T07:22:11;9.38;;;1.20;;
40849;SDS011;26571;41.610;25.380;2022-11-20T07:24:36;10.65;;;2.83;;
40849;SDS011;26571;41.610;25.380;2022-11-20T07:27:02;8.43;;;2.50;;
40849;SDS011;26571;41.610;25.380;2022-11-20T07:29:27;17.58;;;6.38;;
40849;SDS011;26571;41.610;25.380;2022-11-20T07:31:52;15.70;;;5.30;;
40849;SDS011;26571;41.610;25.380;2022-11-20T07:34:20;11.60;;;2.22;;
40849;SDS011;26571;41.610;25.380;2022-11-20T07:36:45;17.30;;;6.70;;
40849;SDS011;26571;41.610;25.380;2022-11-20T07:39:11;16.20;;;6.03;;
40849;SDS011;26571;41.610;25.380;2022-11-20T07:41:36;9.32;;;2.45;;
40849;SDS011;26571;41.610;25.380;2022-11-20T07:44:02;16.38;;;5.43;;
40849;SDS011;26571;41.610;25.380;2022-11-20T07:46:27;14.35;;;4.82;;
40849;SDS011;26571;41.610;25.380;2022-11-20T07:48:52;15.20;;;4.22;;
40849;SDS011;26571;41.610;25.380;2022-11-20T07:51:18;16.83;;;2.33;;
40849;SDS011;26571;41.610;25.380;2022-11-20T07:53:43;10.07;;;3.45;;
40849;SDS011;26571;41.610;25.380;2022-11-20T07:56:09;12.15;;;2.50;;
40849;SDS011;26571;41.610;25.380;2022-11-20T07:58:34;14.23;;;3.33;;
40849;SDS011;26571;41.610;25.380;2022-11-20T08:01:03;9.00;;;2.60;;
40849;SDS011;26571;41.610;25.380;2022-11-20T08:03:34;8.90;;;2.30;;
40849;SDS011;26571;41.610;25.380;2022-11-20T08:06:02;11.25;;;2.92;;
40849;SDS011;26571;41.610;25.380;2022-11-20T08:08:28;12.65;;;2.17;;
40849;SDS011;26571;41.610;25.380;2022-11-20T08:10:56;9.83;;;3.27;;
40849;SDS011;26571;41.610;25.380;2022-11-20T08:13:42;12.15;;;2.33;;
40849;SDS011;26571;41.610;25.380;2022-11-20T08:16:26;13.93;;;2.72;;
40849;SDS011;26571;41.610;25.380;2022-11-20T08:18:51;47.67;;;23.88;;
40849;SDS011;26571;41.610;25.380;2022-11-20T08:21:17;54.42;;;31.13;;
40849;SDS011;26571;41.610;25.380;2022-11-20T08:23:42;72.57;;;34.78;;
40849;SDS011;26571;41.610;25.380;2022-11-20T08:26:07;106.22;;;54.20;;
40849;SDS011;26571;41.610;25.380;2022-11-20T08:28:33;126.30;;;68.88;;
40849;SDS011;26571;41.610;25.380;2022-11-20T08:30:59;101.68;;;52.20;;
40849;SDS011;26571;41.610;25.380;2022-11-20T08:33:25;50.33;;;21.30;;
40849;SDS011;26571;41.610;25.380;2022-11-20T08:35:51;20.90;;;6.63;;
40849;SDS011;26571;41.610;25.380;2022-11-20T08:38:16;26.75;;;10.55;;
40849;SDS011;26571;41.610;25.380;2022-11-20T08:40:41;27.20;;;10.45;;
40849;SDS011;26571;41.610;25.380;2022-11-20T08:43:27;17.90;;;6.00;;
40849;SDS011;26571;41.610;25.380;2022-11-20T08:45:52;10.95;;;2.47;;
40849;SDS011;26571;41.610;25.380;2022-11-20T08:48:18;8.93;;;1.50;;
40849;SDS011;26571;41.610;25.380;2022-11-20T08:50:44;19.58;;;4.95;;
40849;SDS011;26571;41.610;25.380;2022-11-20T08:53:09;11.23;;;2.05;;
40849;SDS011;26571;41.610;25.380;2022-11-20T08:55:34;12.68;;;2.47;;
40849;SDS011;26571;41.610;25.380;2022-11-20T09:02:55;14.27;;;2.55;;
40849;SDS011;26571;41.610;25.380;2022-11-20T09:05:20;13.23;;;4.10;;
40849;SDS011;26571;41.610;25.380;2022-11-20T09:07:46;20.85;;;2.42;;
40849;SDS011;26571;41.610;25.380;2022-11-20T09:10:11;17.70;;;3.90;;
40849;SDS011;26571;41.610;25.380;2022-11-20T09:12:36;18.83;;;3.40;;
40849;SDS011;26571;41.610;25.380;2022-11-20T09:15:02;19.50;;;3.22;;
40849;SDS011;26571;41.610;25.380;2022-11-20T09:17:28;15.63;;;2.88;;
40849;SDS011;26571;41.610;25.380;2022-11-20T09:19:53;20.92;;;3.58;;
40849;SDS011;26571;41.610;25.380;2022-11-20T09:22:18;9.10;;;2.65;;
40849;SDS011;26571;41.610;25.380;2022-11-20T09:24:44;13.95;;;4.78;;
40849;SDS011;26571;41.610;25.380;2022-11-20T09:27:09;15.30;;;2.97;;
40849;SDS011;26571;41.610;25.380;2022-11-20T09:29:34;12.90;;;2.65;;
40849;SDS011;26571;41.610;25.380;2022-11-20T09:32:00;21.85;;;3.85;;
40849;SDS011;26571;41.610;25.380;2022-11-20T09:34:25;15.93;;;3.15;;
40849;SDS011;26571;41.610;25.380;2022-11-20T09:36:51;13.90;;;3.50;;
40849;SDS011;26571;41.610;25.380;2022-11-20T09:39:16;14.25;;;3.55;;
40849;SDS011;26571;41.610;25.380;2022-11-20T09:41:55;17.67;;;4.68;;
40849;SDS011;26571;41.610;25.380;2022-11-20T09:44:38;25.60;;;7.38;;
40849;SDS011;26571;41.610;25.380;2022-11-20T09:55:10;18.67;;;3.90;;
40849;SDS011;26571;41.610;25.380;2022-11-20T09:57:39;18.55;;;5.07;;
40849;SDS011;26571;41.610;25.380;2022-11-20T10:00:09;16.50;;;4.18;;
40849;SDS011;26571;41.610;25.380;2022-11-20T10:05:27;13.23;;;3.38;;
40849;SDS011;26571;41.610;25.380;2022-11-20T10:10:45;19.60;;;3.03;;
40849;SDS011;26571;41.610;25.380;2022-11-20T10:13:17;22.38;;;5.38;;
40849;SDS011;26571;41.610;25.380;2022-11-20T10:18:48;18.02;;;3.42;;
40849;SDS011;26571;41.610;25.380;2022-11-20T10:21:30;13.05;;;3.83;;
40849;SDS011;26571;41.610;25.380;2022-11-20T10:27:09;22.48;;;3.55;;
40849;SDS011;26571;41.610;25.380;2022-11-20T10:29:45;24.23;;;2.50;;
40849;SDS011;26571;41.610;25.380;2022-11-20T10:32:19;15.35;;;2.80;;
40849;SDS011;26571;41.610;25.380;2022-11-20T10:34:58;25.50;;;3.50;;
40849;SDS011;26571;41.610;25.380;2022-11-20T10:37:30;18.52;;;3.00;;
40849;SDS011;26571;41.610;25.380;2022-11-20T10:42:29;20.08;;;5.97;;
40849;SDS011;26571;41.610;25.380;2022-11-20T10:45:02;20.40;;;4.60;;
40849;SDS011;26571;41.610;25.380;2022-11-20T10:47:40;23.38;;;5.68;;
40849;SDS011;26571;41.610;25.380;2022-11-20T10:50:09;29.00;;;7.35;;
40849;SDS011;26571;41.610;25.380;2022-11-20T11:00:40;21.05;;;4.10;;
40849;SDS011;26571;41.610;25.380;2022-11-20T11:05:58;16.80;;;3.10;;
40849;SDS011;26571;41.610;25.380;2022-11-20T11:08:35;18.20;;;3.92;;
40849;SDS011;26571;41.610;25.380;2022-11-20T11:11:18;31.20;;;5.88;;
40849;SDS011;26571;41.610;25.380;2022-11-20T11:13:48;25.67;;;3.08;;
40849;SDS011;26571;41.610;25.380;2022-11-20T11:16:24;22.58;;;2.30;;
40849;SDS011;26571;41.610;25.380;2022-11-20T11:18:51;14.23;;;2.35;;
40849;SDS011;26571;41.610;25.380;2022-11-20T11:21:24;32.13;;;8.02;;
40849;SDS011;26571;41.610;25.380;2022-11-20T11:24:00;18.52;;;2.05;;
40849;SDS011;26571;41.610;25.380;2022-11-20T11:26:28;17.33;;;2.80;;
40849;SDS011;26571;41.610;25.380;2022-11-20T11:28:57;20.75;;;4.10;;
40849;SDS011;26571;41.610;25.380;2022-11-20T11:31:33;21.85;;;3.13;;
40849;SDS011;26571;41.610;25.380;2022-11-20T11:34:06;16.00;;;3.03;;
40849;SDS011;26571;41.610;25.380;2022-11-20T11:36:33;18.67;;;2.47;;
40849;SDS011;26571;41.610;25.380;2022-11-20T11:39:00;23.25;;;6.82;;
40849;SDS011;26571;41.610;25.380;2022-11-20T11:41:31;22.63;;;3.95;;
40849;SDS011;26571;41.610;25.380;2022-11-20T11:44:02;27.02;;;6.55;;
40849;SDS011;26571;41.610;25.380;2022-11-20T11:46:56;20.65;;;4.60;;
40849;SDS011;26571;41.610;25.380;2022-11-20T11:49:23;32.90;;;6.18;;
40849;SDS011;26571;41.610;25.380;2022-11-20T11:54:24;26.35;;;3.40;;
40849;SDS011;26571;41.610;25.380;2022-11-20T11:56:55;20.05;;;4.82;;
40849;SDS011;26571;41.610;25.380;2022-11-20T12:02:36;22.98;;;3.88;;
40849;SDS011;26571;41.610;25.380;2022-11-20T12:05:23;19.77;;;3.88;;
40849;SDS011;26571;41.610;25.380;2022-11-20T12:10:33;27.52;;;3.35;;
40849;SDS011;26571;41.610;25.380;2022-11-20T12:13:04;34.10;;;8.68;;
40849;SDS011;26571;41.610;25.380;2022-11-20T12:15:46;34.13;;;13.00;;
40849;SDS011;26571;41.610;25.380;2022-11-20T12:18:17;31.08;;;9.05;;
40849;SDS011;26571;41.610;25.380;2022-11-20T12:20:53;27.13;;;8.63;;
40849;SDS011;26571;41.610;25.380;2022-11-20T12:26:13;25.40;;;3.90;;
40849;SDS011;26571;41.610;25.380;2022-11-20T12:43:19;26.17;;;3.30;;
40849;SDS011;26571;41.610;25.380;2022-11-20T12:51:51;21.58;;;2.65;;
40849;SDS011;26571;41.610;25.380;2022-11-20T12:57:53;40.38;;;3.95;;
40849;SDS011;26571;41.610;25.380;2022-11-20T13:00:23;21.73;;;3.47;;
40849;SDS011;26571;41.610;25.380;2022-11-20T13:05:43;26.30;;;2.55;;
40849;SDS011;26571;41.610;25.380;2022-11-20T13:08:25;25.63;;;4.95;;
40849;SDS011;26571;41.610;25.380;2022-11-20T13:10:58;29.65;;;3.78;;
40849;SDS011;26571;41.610;25.380;2022-11-20T13:16:48;19.77;;;3.53;;
40849;SDS011;26571;41.610;25.380;2022-11-20T13:19:19;16.38;;;4.22;;
40849;SDS011;26571;41.610;25.380;2022-11-20T13:21:46;26.65;;;5.15;;
40849;SDS011;26571;41.610;25.380;2022-11-20T13:24:21;28.65;;;3.70;;
40849;SDS011;26571;41.610;25.380;2022-11-20T13:27:03;34.17;;;4.07;;
40849;SDS011;26571;41.610;25.380;2022-11-20T13:29:37;25.00;;;3.65;;
40849;SDS011;26571;41.610;25.380;2022-11-20T13:34:54;26.17;;;4.32;;
40849;SDS011;26571;41.610;25.380;2022-11-20T13:37:29;17.95;;;2.70;;
40849;SDS011;26571;41.610;25.380;2022-11-20T13:42:33;27.65;;;3.47;;
40849;SDS011;26571;41.610;25.380;2022-11-20T13:45:07;30.55;;;5.72;;
40849;SDS011;26571;41.610;25.380;2022-11-20T13:47:35;38.50;;;4.47;;
40849;SDS011;26571;41.610;25.380;2022-11-20T13:50:02;21.23;;;2.38;;
40849;SDS011;26571;41.610;25.380;2022-11-20T13:57:52;39.40;;;7.85;;
40849;SDS011;26571;41.610;25.380;2022-11-20T14:00:28;29.27;;;4.22;;
40849;SDS011;26571;41.610;25.380;2022-11-20T14:05:31;31.48;;;6.50;;
40849;SDS011;26571;41.610;25.380;2022-11-20T14:08:04;41.30;;;6.03;;
40849;SDS011;26571;41.610;25.380;2022-11-20T14:10:36;29.08;;;3.53;;
40849;SDS011;26571;41.610;25.380;2022-11-20T14:13:19;27.50;;;4.13;;
40849;SDS011;26571;41.610;25.380;2022-11-20T14:15:47;23.10;;;4.70;;
40849;SDS011;26571;41.610;25.380;2022-11-20T14:18:14;40.88;;;4.78;;
40849;SDS011;26571;41.610;25.380;2022-11-20T14:20:44;24.63;;;4.25;;
40849;SDS011;26571;41.610;25.380;2022-11-20T14:23:10;34.22;;;8.10;;
40849;SDS011;26571;41.610;25.380;2022-11-20T14:25:36;35.20;;;6.75;;
40849;SDS011;26571;41.610;25.380;2022-11-20T14:28:10;32.85;;;8.60;;
40849;SDS011;26571;41.610;25.380;2022-11-20T14:30:44;31.17;;;7.32;;
40849;SDS011;26571;41.610;25.380;2022-11-20T14:33:12;37.30;;;7.32;;
40849;SDS011;26571;41.610;25.380;2022-11-20T14:35:49;34.33;;;6.68;;
40849;SDS011;26571;41.610;25.380;2022-11-20T14:38:27;37.83;;;7.32;;
40849;SDS011;26571;41.610;25.380;2022-11-20T14:41:06;25.10;;;7.15;;
40849;SDS011;26571;41.610;25.380;2022-11-20T14:43:44;42.35;;;12.38;;
40849;SDS011;26571;41.610;25.380;2022-11-20T14:46:11;34.55;;;9.45;;
40849;SDS011;26571;41.610;25.380;2022-11-20T14:48:38;28.05;;;5.05;;
40849;SDS011;26571;41.610;25.380;2022-11-20T14:51:09;31.65;;;7.00;;
40849;SDS011;26571;41.610;25.380;2022-11-20T14:53:48;31.88;;;5.25;;
40849;SDS011;26571;41.610;25.380;2022-11-20T14:56:13;33.90;;;6.15;;
40849;SDS011;26571;41.610;25.380;2022-11-20T14:58:55;34.80;;;5.88;;
40849;SDS011;26571;41.610;25.380;2022-11-20T15:01:27;31.00;;;6.50;;
40849;SDS011;26571;41.610;25.380;2022-11-20T15:04:01;23.88;;;5.10;;
40849;SDS011;26571;41.610;25.380;2022-11-20T15:06:27;28.98;;;6.43;;
40849;SDS011;26571;41.610;25.380;2022-11-20T15:08:54;32.95;;;7.50;;
40849;SDS011;26571;41.610;25.380;2022-11-20T15:11:20;26.52;;;7.43;;
40849;SDS011;26571;41.610;25.380;2022-11-20T15:13:54;24.75;;;4.60;;
40849;SDS011;26571;41.610;25.380;2022-11-20T15:16:20;26.55;;;5.18;;
40849;SDS011;26571;41.610;25.380;2022-11-20T15:18:48;31.20;;;5.05;;
40849;SDS011;26571;41.610;25.380;2022-11-20T15:21:15;26.80;;;7.20;;
40849;SDS011;26571;41.610;25.380;2022-11-20T15:23:42;36.10;;;8.50;;
40849;SDS011;26571;41.610;25.380;2022-11-20T15:26:08;39.70;;;6.28;;
40849;SDS011;26571;41.610;25.380;2022-11-20T15:28:44;36.92;;;8.52;;
40849;SDS011;26571;41.610;25.380;2022-11-20T15:33:38;28.10;;;5.05;;
40849;SDS011;26571;41.610;25.380;2022-11-20T15:36:04;17.83;;;3.72;;
40849;SDS011;26571;41.610;25.380;2022-11-20T15:38:29;36.55;;;4.72;;
40849;SDS011;26571;41.610;25.380;2022-11-20T15:40:55;39.28;;;9.73;;
40849;SDS011;26571;41.610;25.380;2022-11-20T15:43:21;42.95;;;14.50;;
40849;SDS011;26571;41.610;25.380;2022-11-20T15:45:51;40.88;;;13.80;;
40849;SDS011;26571;41.610;25.380;2022-11-20T15:48:29;44.42;;;13.98;;
40849;SDS011;26571;41.610;25.380;2022-11-20T15:53:35;56.75;;;14.95;;
40849;SDS011;26571;41.610;25.380;2022-11-20T15:56:01;31.75;;;7.15;;
40849;SDS011;26571;41.610;25.380;2022-11-20T15:58:27;16.45;;;4.38;;
40849;SDS011;26571;41.610;25.380;2022-11-20T16:00:52;20.17;;;5.95;;
40849;SDS011;26571;41.610;25.380;2022-11-20T16:03:18;26.70;;;6.25;;
40849;SDS011;26571;41.610;25.380;2022-11-20T16:05:44;36.88;;;8.00;;
40849;SDS011;26571;41.610;25.380;2022-11-20T16:08:10;18.98;;;4.05;;
40849;SDS011;26571;41.610;25.380;2022-11-20T16:10:36;19.98;;;4.82;;
40849;SDS011;26571;41.610;25.380;2022-11-20T16:13:01;23.58;;;6.72;;
40849;SDS011;26571;41.610;25.380;2022-11-20T16:15:49;23.70;;;7.35;;
40849;SDS011;26571;41.610;25.380;2022-11-20T16:18:18;25.00;;;5.28;;
40849;SDS011;26571;41.610;25.380;2022-11-20T16:23:10;33.15;;;9.05;;
40849;SDS011;26571;41.610;25.380;2022-11-20T16:25:37;24.10;;;6.22;;
40849;SDS011;26571;41.610;25.380;2022-11-20T16:28:02;21.83;;;6.53;;
40849;SDS011;26571;41.610;25.380;2022-11-20T16:30:28;31.75;;;10.43;;
40849;SDS011;26571;41.610;25.380;2022-11-20T16:32:53;29.48;;;9.15;;